Airfield :







YOU CAN JOIN US ON...

 
LOGIN :

Register | Disclaimer

   EN    FR    IT 

 









Legend :    VFR   Marginal VFR   IFR   Intensive IFR   Very Intensive IFR
Visi :
Ceiling :
>= 8 km
>= 3000ft
5 to 8 km
1000 to 3000 ft
1500m to 5 km
500 to 1000 ft
800 to 1500m
200 to 500 ft
< 800m
< 200 ft
Symbols :   Thunderstorms  Fog  Heavy snow  Heavy precipitations  Wind > 20 kt






- Airport Elevation : 244 ft
- IATA code : YQB


CYQB - Quebec - Jean Lesage Int.

CURRENT METAR :
  • 240900Z 22003KT 15SM BKN031 M04/M05 A3041 RMK SC7 SLP303

EXPIRED METARs :
  • 240800Z 00000KT 10SM OVC031 M03/M06 A3040 RMK SC8 SLP300
  • 240700Z 20002KT 10SM OVC032 M03/M06 A3039 RMK SC8 SLP297

TAF TAF CYQB
Valid from the 24 at 06:00 until the 25 at 06:00 UTC


240538Z 2406/2506 23008KT P6SM BKN030
TEMPO 2406/2412 SCT030
PROB30 2406/2412 1SM BR BKN003
FM241200 05008KT P6SM FEW030 BKN120
BECMG 2412/2414 07012G22KT
FM250000 06012KT P6SM SCT120 RMK NXT FCST BY 241200Z
ATIS : ENG : +1 418-871-6893 FRA : +1 418-871-6895



MET'MAP, your aeronautical weather chart ! - Copyright ORBIFLY December 2007 - Disclaimer

ORBIFLY MET'MAP TEAM :

Programming & Development : Alexandra Zaïnal
Concept & original design : Baudouin d'Aumeries
Assistance for programming : Marc-Olivier Méhu
Technical & hardware support : Manuel Goepfert

Contact : metmap@orbifly.com




SOURCES & CREDITS :

   NOAA